createdAt,value
2022-08-07T00:00:28.324Z,99857.41
2022-08-07T00:02:58.116Z,99857.81
2022-08-07T00:05:26.418Z,99854.88
2022-08-07T00:07:59.788Z,99852.84
2022-08-07T00:10:31.052Z,99859.63
2022-08-07T00:13:23.638Z,99863.31
2022-08-07T00:15:52.783Z,99863.59
2022-08-07T00:18:24.691Z,99856.31
2022-08-07T00:21:03.242Z,99857.56
2022-08-07T00:23:32.976Z,99855.00
2022-08-07T00:26:13.113Z,99859.50
2022-08-07T00:28:55.632Z,99852.91
2022-08-07T00:31:38.469Z,99855.31
2022-08-07T00:34:09.579Z,99867.47
2022-08-07T00:36:42.799Z,99861.53
2022-08-07T00:39:17.064Z,99858.59
2022-08-07T00:42:01.665Z,99850.34
2022-08-07T00:44:30.107Z,99862.66
2022-08-07T00:46:59.665Z,99851.44
2022-08-07T00:50:19.445Z,99853.56
2022-08-07T00:52:14.710Z,99844.09
2022-08-07T00:54:45.226Z,99844.59
2022-08-07T00:57:13.556Z,99849.56
2022-08-07T00:59:42.353Z,99853.56
2022-08-07T01:02:20.326Z,99852.56
2022-08-07T01:04:58.199Z,99854.94
2022-08-07T01:07:28.460Z,99862.81
2022-08-07T01:10:06.946Z,99850.97
2022-08-07T01:12:44.779Z,99855.34
2022-08-07T01:16:00.672Z,99844.44
2022-08-07T01:18:17.088Z,99850.28
2022-08-07T01:20:59.209Z,99847.56
2022-08-07T01:23:36.886Z,99852.31
2022-08-07T01:26:14.268Z,99844.47
2022-08-07T01:28:48.389Z,99823.53
2022-08-07T01:31:42.615Z,99846.81
2022-08-07T01:34:15.317Z,99842.06
2022-08-07T01:36:44.407Z,99842.97
2022-08-07T01:39:24.634Z,99843.47
2022-08-07T01:42:40.089Z,99844.47
2022-08-07T01:44:58.487Z,99828.66
2022-08-07T01:48:21.111Z,99843.28
2022-08-07T01:50:16.351Z,99833.13
2022-08-07T01:52:58.648Z,99831.28
2022-08-07T01:55:28.974Z,99826.81
2022-08-07T01:58:05.616Z,99820.22
2022-08-07T02:00:51.684Z,99828.00
2022-08-07T02:03:42.877Z,99830.63
2022-08-07T02:06:31.458Z,99844.03
2022-08-07T02:09:08.046Z,99844.88
2022-08-07T02:12:04.194Z,99842.94
2022-08-07T02:14:40.841Z,99839.78
2022-08-07T02:17:27.583Z,99837.66
2022-08-07T02:20:04.403Z,99836.81
2022-08-07T02:22:41.475Z,99823.59
2022-08-07T02:25:17.362Z,99824.59
2022-08-07T02:27:55.756Z,99830.56
2022-08-07T02:30:24.766Z,99826.38
2022-08-07T02:33:07.249Z,99827.00
2022-08-07T02:36:30.964Z,99820.63
2022-08-07T02:38:35.996Z,99824.16
2022-08-07T02:41:06.040Z,99825.84
2022-08-07T02:43:39.440Z,99824.28
2022-08-07T02:46:09.370Z,99826.25
2022-08-07T02:48:38.885Z,99820.75
2022-08-07T02:51:42.748Z,99795.34
2022-08-07T02:54:13.129Z,99826.38
2022-08-07T02:56:42.314Z,99832.28
2022-08-07T02:59:15.418Z,99832.50
2022-08-07T03:01:47.244Z,99818.69
2022-08-07T03:04:23.364Z,99826.94
2022-08-07T03:06:53.364Z,99823.38
2022-08-07T03:09:42.264Z,99828.28
2022-08-07T03:12:21.638Z,99832.72
2022-08-07T03:14:56.515Z,99830.41
2022-08-07T03:17:24.514Z,99843.78
2022-08-07T03:19:55.687Z,99837.81
2022-08-07T03:22:30.391Z,99841.66
2022-08-07T03:25:00.415Z,99846.75
2022-08-07T03:28:08.761Z,99847.19
2022-08-07T03:30:24.429Z,99843.16
2022-08-07T03:32:58.519Z,99832.75
2022-08-07T03:35:43.971Z,99836.34
2022-08-07T03:38:21.048Z,99824.63
2022-08-07T03:40:53.842Z,99838.22
2022-08-07T03:43:32.422Z,99840.75
2022-08-07T03:46:03.625Z,99832.06
2022-08-07T03:48:45.472Z,99839.72
2022-08-07T03:51:47.244Z,99841.03
2022-08-07T03:54:36.211Z,99841.78
2022-08-07T03:57:08.991Z,99839.28
2022-08-07T03:59:46.767Z,99849.25
2022-08-07T04:02:28.292Z,99858.16
2022-08-07T04:04:59.441Z,99852.84
2022-08-07T04:07:36.210Z,99856.88
2022-08-07T04:10:15.681Z,99859.81
2022-08-07T04:12:49.918Z,99854.47
2022-08-07T04:15:19.332Z,99861.28
2022-08-07T04:18:57.301Z,99859.44
2022-08-07T04:20:38.921Z,99859.00
2022-08-07T04:23:25.210Z,99859.63
2022-08-07T04:26:14.262Z,99854.44
2022-08-07T04:28:47.443Z,99863.69
2022-08-07T04:31:20.196Z,99868.81
2022-08-07T04:34:03.593Z,99880.53
2022-08-07T04:36:31.316Z,99870.56
2022-08-07T04:39:02.753Z,99863.44
2022-08-07T04:41:30.246Z,99877.88
2022-08-07T04:44:14.825Z,99873.56
2022-08-07T04:47:08.990Z,99872.22
2022-08-07T04:49:57.931Z,99860.38
2022-08-07T04:52:51.298Z,99873.13
2022-08-07T04:58:14.418Z,99871.63
2022-08-07T05:01:45.186Z,99855.63
2022-08-07T05:04:31.170Z,99874.13
2022-08-07T05:07:19.722Z,99875.94
2022-08-07T05:10:11.019Z,99861.84
2022-08-07T05:14:44.772Z,99862.19
2022-08-07T05:15:54.881Z,99857.13
2022-08-07T05:18:37.299Z,99864.94
2022-08-07T05:21:10.111Z,99870.44
2022-08-07T05:23:50.681Z,99871.72
2022-08-07T05:26:24.090Z,99862.31
2022-08-07T05:29:04.628Z,99863.13
2022-08-07T05:31:39.762Z,99864.25
2022-08-07T05:34:16.042Z,99870.38
2022-08-07T05:36:54.963Z,99865.41
2022-08-07T05:40:13.616Z,99867.22
2022-08-07T05:42:34.824Z,99873.09
2022-08-07T05:45:26.221Z,99869.47
2022-08-07T05:48:03.282Z,99879.53
2022-08-07T05:50:42.970Z,99867.19
2022-08-07T05:54:12.900Z,99873.03
2022-08-07T05:56:05.475Z,99878.25
2022-08-07T05:58:39.401Z,99878.66
2022-08-07T06:01:12.383Z,99879.28
2022-08-07T06:03:57.043Z,99882.03
2022-08-07T06:06:34.994Z,99889.16
2022-08-07T06:09:06.493Z,99876.75
2022-08-07T06:11:39.463Z,99874.09
2022-08-07T06:14:11.546Z,99885.91
2022-08-07T06:16:50.629Z,99886.28
2022-08-07T06:19:52.353Z,99884.25
2022-08-07T06:22:23.521Z,99880.03
2022-08-07T06:25:25.642Z,99876.66
2022-08-07T06:28:15.601Z,99885.09
2022-08-07T06:30:59.319Z,99870.75
2022-08-07T06:33:29.762Z,99882.59
2022-08-07T06:36:13.381Z,99880.38
2022-08-07T06:40:13.487Z,99881.78
2022-08-07T06:42:02.824Z,99884.91
2022-08-07T06:45:18.066Z,99893.19
2022-08-07T06:47:58.585Z,99883.63
2022-08-07T06:50:50.109Z,99899.88
2022-08-07T06:55:27.499Z,99895.66
2022-08-07T06:56:17.841Z,99889.53
2022-08-07T07:00:13.649Z,99891.34
2022-08-07T07:01:50.653Z,99890.78
2022-08-07T07:04:28.383Z,99900.84
2022-08-07T07:07:18.853Z,99893.56
2022-08-07T07:09:48.888Z,99897.34
2022-08-07T07:12:31.473Z,99891.75
2022-08-07T07:15:03.879Z,99887.56
2022-08-07T07:17:52.364Z,99889.00
2022-08-07T07:20:35.742Z,99903.72
2022-08-07T07:24:11.295Z,99899.94
2022-08-07T07:26:32.926Z,99896.53
2022-08-07T07:29:38.954Z,99895.44
2022-08-07T07:32:09.038Z,99900.03
2022-08-07T07:34:41.613Z,99899.44
2022-08-07T07:37:22.094Z,99899.59
2022-08-07T07:40:10.423Z,99902.88
2022-08-07T07:42:53.794Z,99899.72
2022-08-07T07:46:39.798Z,99892.56
2022-08-07T07:48:24.344Z,99902.25
2022-08-07T07:51:08.091Z,99908.00
2022-08-07T07:53:52.139Z,99902.06
2022-08-07T07:56:30.382Z,99905.91
2022-08-07T07:59:03.179Z,99907.28
2022-08-07T08:02:03.563Z,99913.56
2022-08-07T08:04:36.585Z,99897.34
2022-08-07T08:07:09.447Z,99910.66
2022-08-07T08:09:52.555Z,99895.47
2022-08-07T08:12:52.601Z,99907.34
2022-08-07T08:15:23.296Z,99897.19
2022-08-07T08:17:58.260Z,99894.44
2022-08-07T08:20:32.137Z,99910.06
2022-08-07T08:23:23.297Z,99905.53
2022-08-07T08:26:28.585Z,99916.31
2022-08-07T08:29:00.273Z,99906.72
2022-08-07T08:32:10.163Z,99909.41
2022-08-07T08:34:33.494Z,99905.69
2022-08-07T08:37:09.975Z,99908.22
2022-08-07T08:39:58.399Z,99909.97
2022-08-07T08:42:32.454Z,99904.63
2022-08-07T08:45:04.621Z,99891.28
2022-08-07T08:47:52.539Z,99894.47
2022-08-07T08:50:39.557Z,99896.25
2022-08-07T08:53:32.832Z,99893.03
2022-08-07T08:56:04.850Z,99893.50
2022-08-07T08:58:50.667Z,99891.28
2022-08-07T09:01:43.650Z,99897.41
2022-08-07T09:04:28.786Z,99893.78
2022-08-07T09:07:23.156Z,99889.41
2022-08-07T09:09:58.548Z,99879.69
2022-08-07T09:12:37.264Z,99887.00
2022-08-07T09:16:22.308Z,99871.31
2022-08-07T09:18:52.995Z,99861.03
2022-08-07T09:22:10.188Z,99858.91
2022-08-07T09:25:14.536Z,99857.22
2022-08-07T09:28:03.816Z,99852.88
2022-08-07T09:31:01.484Z,99856.94
2022-08-07T09:33:56.955Z,99845.03
2022-08-07T09:36:36.972Z,99855.59
2022-08-07T09:39:27.298Z,99855.66
2022-08-07T09:42:09.280Z,99844.75
2022-08-07T09:47:25.074Z,99853.28
2022-08-07T09:48:06.164Z,99844.88
2022-08-07T09:52:10.469Z,99848.72
2022-08-07T09:54:16.401Z,99846.16
2022-08-07T09:57:15.761Z,99830.38
2022-08-07T10:00:00.547Z,99826.44
2022-08-07T10:04:05.879Z,99832.50
2022-08-07T10:06:55.475Z,99829.28
2022-08-07T10:10:02.859Z,99819.53
2022-08-07T10:12:33.554Z,99810.56
2022-08-07T10:15:44.465Z,99811.34
2022-08-07T10:18:35.321Z,99807.44
2022-08-07T10:21:19.780Z,99805.72
2022-08-07T10:24:39.932Z,99803.06
2022-08-07T10:27:52.321Z,99810.53
2022-08-07T10:30:44.058Z,99803.09
2022-08-07T10:34:14.205Z,99798.94
2022-08-07T10:37:14.284Z,99797.59
2022-08-07T10:40:05.547Z,99796.84
2022-08-07T10:42:46.659Z,99783.38
2022-08-07T10:45:44.479Z,99775.34
2022-08-07T10:48:41.334Z,99772.66
2022-08-07T10:51:57.332Z,99776.56
2022-08-07T10:54:24.346Z,99770.66
2022-08-07T10:57:34.755Z,99771.34
2022-08-07T11:00:36.546Z,99769.97
2022-08-07T11:03:42.813Z,99767.53
2022-08-07T11:06:42.474Z,99760.47
2022-08-07T11:10:10.234Z,99752.59
2022-08-07T11:12:38.653Z,99759.03
2022-08-07T11:15:31.613Z,99764.31
2022-08-07T11:18:03.667Z,99751.16
2022-08-07T11:20:48.907Z,99744.97
2022-08-07T11:23:30.780Z,99735.13
2022-08-07T11:26:27.220Z,99737.59
2022-08-07T11:29:42.839Z,99731.91
2022-08-07T11:32:40.625Z,99726.19
2022-08-07T11:35:26.883Z,99731.19
2022-08-07T11:38:21.206Z,99728.78
2022-08-07T11:41:29.688Z,99723.19
2022-08-07T11:44:24.041Z,99712.47
2022-08-07T11:47:10.273Z,99716.25
2022-08-07T11:50:11.376Z,99722.53
2022-08-07T11:53:05.107Z,99717.44
2022-08-07T11:56:24.746Z,99717.91
2022-08-07T12:00:07.635Z,99712.78
2022-08-07T12:02:31.921Z,99709.75
2022-08-07T12:05:28.672Z,99716.88
2022-08-07T12:08:26.025Z,99716.25
2022-08-07T12:11:22.471Z,99711.84
2022-08-07T12:14:08.684Z,99703.00
2022-08-07T12:16:47.240Z,99698.06
2022-08-07T12:20:04.690Z,99699.91
2022-08-07T12:23:11.176Z,99695.50
2022-08-07T12:26:02.822Z,99693.03
2022-08-07T12:29:02.013Z,99684.19
2022-08-07T12:32:05.106Z,99693.66
2022-08-07T12:34:39.386Z,99684.50
2022-08-07T12:37:16.414Z,99686.28
2022-08-07T12:39:50.789Z,99669.66
2022-08-07T12:42:27.763Z,99670.97
2022-08-07T12:44:59.121Z,99676.13
2022-08-07T12:47:44.013Z,99659.28
2022-08-07T12:50:40.368Z,99662.44
2022-08-07T12:53:23.156Z,99664.19
2022-08-07T12:56:26.704Z,99648.94
2022-08-07T12:58:58.088Z,99668.31
2022-08-07T13:01:49.181Z,99664.50
2022-08-07T13:04:49.388Z,99660.72
2022-08-07T13:08:12.773Z,99649.16
2022-08-07T13:11:10.060Z,99649.47
2022-08-07T13:14:02.285Z,99645.16
2022-08-07T13:16:39.244Z,99626.16
2022-08-07T13:19:53.212Z,99632.25
2022-08-07T13:22:36.382Z,99632.75
2022-08-07T13:25:15.195Z,99635.06
2022-08-07T13:28:11.030Z,99623.63
2022-08-07T13:31:13.538Z,99621.97
2022-08-07T13:34:32.595Z,99609.81
2022-08-07T13:36:45.685Z,99604.78
2022-08-07T13:40:34.092Z,99612.63
2022-08-07T13:42:24.784Z,99619.78
2022-08-07T13:45:20.634Z,99607.16
2022-08-07T13:48:05.859Z,99607.38
2022-08-07T13:50:55.570Z,99606.19
2022-08-07T13:53:36.082Z,99593.31
2022-08-07T13:56:19.448Z,99595.47
2022-08-07T13:59:12.107Z,99593.28
2022-08-07T14:02:03.635Z,99595.34
2022-08-07T14:04:48.965Z,99590.63
2022-08-07T14:07:26.139Z,99591.38
2022-08-07T14:10:02.165Z,99599.53
2022-08-07T14:12:53.985Z,99595.16
2022-08-07T14:15:50.801Z,99602.56
2022-08-07T14:18:28.337Z,99601.16
2022-08-07T14:21:21.237Z,99601.13
2022-08-07T14:24:07.648Z,99607.72
2022-08-07T14:26:50.262Z,99614.63
2022-08-07T14:30:06.700Z,99604.41
2022-08-07T14:32:13.485Z,99603.25
2022-08-07T14:34:46.480Z,99616.19
2022-08-07T14:37:17.675Z,99610.78
2022-08-07T14:40:18.148Z,99610.78
2022-08-07T14:43:54.784Z,99621.19
2022-08-07T14:45:49.267Z,99614.59
2022-08-07T14:48:20.485Z,99628.38
2022-08-07T14:50:53.509Z,99613.06
2022-08-07T14:54:05.472Z,99631.31
2022-08-07T14:59:13.898Z,99633.03
2022-08-07T15:01:58.409Z,99635.94
2022-08-07T15:04:29.074Z,99637.66
2022-08-07T15:06:58.423Z,99639.41
2022-08-07T15:12:30.290Z,99644.19
2022-08-07T15:15:07.633Z,99635.06
2022-08-07T15:17:54.893Z,99635.88
2022-08-07T15:20:54.657Z,99636.47
2022-08-07T15:25:14.273Z,99627.47
2022-08-07T15:26:20.955Z,99622.72
2022-08-07T15:29:00.950Z,99633.06
2022-08-07T15:35:04.215Z,99638.97
2022-08-07T15:40:34.698Z,99641.28
2022-08-07T15:43:53.276Z,99644.59
2022-08-07T15:49:15.191Z,99638.06
2022-08-07T15:54:39.578Z,99639.34
2022-08-07T15:57:27.975Z,99633.38
2022-08-07T16:00:31.195Z,99634.72
2022-08-07T16:03:04.842Z,99644.66
2022-08-07T16:05:36.164Z,99642.56
2022-08-07T16:08:33.089Z,99623.19
2022-08-07T16:11:26.534Z,99634.53
2022-08-07T16:14:09.526Z,99611.69
2022-08-07T16:18:01.448Z,99638.78
2022-08-07T16:20:42.744Z,99649.50
2022-08-07T16:23:13.679Z,99649.31
2022-08-07T16:26:14.533Z,99650.84
2022-08-07T16:30:08.882Z,99648.91
2022-08-07T16:32:01.538Z,99648.22
2022-08-07T16:34:49.099Z,99647.56
2022-08-07T16:38:03.935Z,99655.75
2022-08-07T16:40:57.249Z,99658.69
2022-08-07T16:44:03.908Z,99655.75
2022-08-07T16:47:07.897Z,99667.84
2022-08-07T16:50:29.311Z,99660.44
2022-08-07T16:53:20.756Z,99668.78
2022-08-07T16:56:14.908Z,99665.59
2022-08-07T16:59:14.857Z,99675.72
2022-08-07T17:02:52.222Z,99677.22
2022-08-07T17:06:01.746Z,99682.38
2022-08-07T17:09:04.364Z,99662.66
2022-08-07T17:12:04.499Z,99682.97
2022-08-07T17:14:42.680Z,99684.94
2022-08-07T17:17:46.650Z,99673.78
2022-08-07T17:20:38.008Z,99680.84
2022-08-07T17:23:32.350Z,99680.03
2022-08-07T17:26:23.557Z,99678.63
2022-08-07T17:30:12.849Z,99689.06
2022-08-07T17:32:14.090Z,99700.03
2022-08-07T17:35:50.226Z,99696.69
2022-08-07T17:38:32.258Z,99706.81
2022-08-07T17:42:02.331Z,99702.88
2022-08-07T17:44:33.590Z,99707.94
2022-08-07T17:47:42.392Z,99721.44
2022-08-07T17:50:42.433Z,99717.25
2022-08-07T17:54:01.584Z,99713.88
2022-08-07T17:56:28.537Z,99708.59
2022-08-07T17:58:56.906Z,99723.16
2022-08-07T18:01:50.823Z,99718.72
2022-08-07T18:04:30.768Z,99705.53
2022-08-07T18:07:20.942Z,99722.38
2022-08-07T18:10:10.036Z,99715.06
2022-08-07T18:13:16.844Z,99728.22
2022-08-07T18:16:32.735Z,99733.81
2022-08-07T18:21:11.607Z,99744.50
2022-08-07T18:22:15.131Z,99749.50
2022-08-07T18:24:51.278Z,99757.91
2022-08-07T18:27:49.619Z,99753.72
2022-08-07T18:30:31.066Z,99759.88
2022-08-07T18:33:26.169Z,99772.16
2022-08-07T18:36:01.047Z,99772.72
2022-08-07T18:38:58.086Z,99765.16
2022-08-07T18:42:04.189Z,99782.81
2022-08-07T18:45:42.894Z,99789.81
2022-08-07T18:47:45.133Z,99792.31
2022-08-07T18:50:39.559Z,99790.94
2022-08-07T18:53:39.162Z,99794.28
2022-08-07T18:56:34.033Z,99797.38
2022-08-07T18:59:46.711Z,99802.13
2022-08-07T19:02:42.511Z,99805.50
2022-08-07T19:05:23.451Z,99808.53
2022-08-07T19:08:07.716Z,99813.31
2022-08-07T19:10:52.869Z,99800.16
2022-08-07T19:13:29.243Z,99813.31
2022-08-07T19:17:00.376Z,99813.88
2022-08-07T19:19:34.714Z,99817.16
2022-08-07T19:22:18.663Z,99815.19
2022-08-07T19:25:06.442Z,99810.72
2022-08-07T19:28:29.693Z,99823.56
2022-08-07T19:30:57.029Z,99828.25
2022-08-07T19:33:34.594Z,99825.22
2022-08-07T19:36:05.646Z,99832.69
2022-08-07T19:38:53.207Z,99845.84
2022-08-07T19:41:44.055Z,99858.69
2022-08-07T19:44:22.045Z,99851.78
2022-08-07T19:46:57.720Z,99859.75
2022-08-07T19:49:58.293Z,99852.63
2022-08-07T19:52:27.817Z,99847.38
2022-08-07T19:55:00.048Z,99844.72
2022-08-07T19:58:00.975Z,99822.81
2022-08-07T20:00:38.111Z,99849.41
2022-08-07T20:03:33.826Z,99851.22
2022-08-07T20:06:05.250Z,99837.19
2022-08-07T20:08:37.935Z,99852.22
2022-08-07T20:11:10.779Z,99858.78
2022-08-07T20:13:51.561Z,99860.75
2022-08-07T20:16:35.454Z,99849.00
2022-08-07T20:19:10.242Z,99841.28
2022-08-07T20:21:46.643Z,99860.28
2022-08-07T20:24:30.130Z,99865.22
2022-08-07T20:27:03.306Z,99857.38
2022-08-07T20:29:48.737Z,99854.78
2022-08-07T20:32:25.675Z,99864.66
2022-08-07T20:34:58.945Z,99864.59
2022-08-07T20:37:55.378Z,99860.91
2022-08-07T20:40:33.172Z,99867.00
2022-08-07T20:43:09.453Z,99858.63
2022-08-07T20:46:27.745Z,99869.50
2022-08-07T20:48:34.567Z,99871.41
2022-08-07T20:51:09.741Z,99879.09
2022-08-07T20:54:03.196Z,99870.53
2022-08-07T20:56:33.576Z,99875.66
2022-08-07T20:59:05.414Z,99862.69
2022-08-07T21:01:45.880Z,99882.22
2022-08-07T21:04:28.564Z,99869.97
2022-08-07T21:06:58.837Z,99869.38
2022-08-07T21:09:52.418Z,99873.09
2022-08-07T21:12:30.730Z,99880.66
2022-08-07T21:15:03.379Z,99862.78
2022-08-07T21:18:03.233Z,99877.38
2022-08-07T21:20:29.731Z,99881.38
2022-08-07T21:23:08.340Z,99894.69
2022-08-07T21:26:24.068Z,99885.66
2022-08-07T21:28:59.194Z,99888.78
2022-08-07T21:32:41.755Z,99900.94
2022-08-07T21:34:48.257Z,99892.69
2022-08-07T21:37:24.519Z,99896.19
2022-08-07T21:39:59.876Z,99890.75
2022-08-07T21:43:11.121Z,99900.19
2022-08-07T21:46:08.813Z,99903.41
2022-08-07T21:48:56.556Z,99897.91
2022-08-07T21:51:33.352Z,99890.16
2022-08-07T21:54:50.340Z,99888.66
2022-08-07T21:57:44.988Z,99884.16
2022-08-07T22:00:26.653Z,99893.78
2022-08-07T22:03:31.341Z,99902.28
2022-08-07T22:06:06.405Z,99892.47
2022-08-07T22:08:52.461Z,99909.16
2022-08-07T22:11:22.708Z,99908.13
2022-08-07T22:14:00.477Z,99903.78
2022-08-07T22:16:43.661Z,99905.59
2022-08-07T22:19:29.262Z,99894.09
2022-08-07T22:22:21.611Z,99905.22
2022-08-07T22:25:07.539Z,99904.09
2022-08-07T22:28:30.201Z,99905.00
2022-08-07T22:31:56.421Z,99907.19
2022-08-07T22:34:53.029Z,99909.88
2022-08-07T22:38:04.363Z,99906.16
2022-08-07T22:40:30.285Z,99900.06
2022-08-07T22:43:07.608Z,99910.19
2022-08-07T22:47:01.915Z,99915.91
2022-08-07T22:49:39.847Z,99917.34
2022-08-07T22:52:58.867Z,99909.94
2022-08-07T22:55:56.952Z,99916.09
2022-08-07T22:58:52.416Z,99923.47
2022-08-07T23:01:49.398Z,99918.22
2022-08-07T23:04:57.915Z,99910.50
2022-08-07T23:07:52.167Z,99917.56
2022-08-07T23:10:37.405Z,99903.53
2022-08-07T23:14:10.521Z,99899.59
2022-08-07T23:17:20.080Z,99916.44
2022-08-07T23:20:51.420Z,99914.94
2022-08-07T23:24:06.921Z,99928.19
2022-08-07T23:26:54.900Z,99922.31
2022-08-07T23:30:37.277Z,99934.53
2022-08-07T23:34:36.141Z,99933.88
2022-08-07T23:36:39.418Z,99924.81
2022-08-07T23:39:41.347Z,99937.56
2022-08-07T23:42:53.950Z,99922.19
2022-08-07T23:46:02.585Z,99935.28
2022-08-07T23:48:36.291Z,99937.22
2022-08-07T23:52:53.436Z,99940.59
2022-08-07T23:54:36.254Z,99938.31
2022-08-07T23:57:28.537Z,99933.84
